sensor_id;sensor_type;location;lat;lon;timestamp;P1;durP1;ratioP1;P2;durP2;ratioP2
43606;SDS011;29197;44.788;10.366;2023-02-04T00:02:20;49.93;;;25.13;;
43606;SDS011;29197;44.788;10.366;2023-02-04T00:05:09;48.13;;;24.53;;
43606;SDS011;29197;44.788;10.366;2023-02-04T00:07:58;49.87;;;25.63;;
43606;SDS011;29197;44.788;10.366;2023-02-04T00:10:47;54.77;;;26.00;;
43606;SDS011;29197;44.788;10.366;2023-02-04T00:13:35;50.30;;;26.83;;
43606;SDS011;29197;44.788;10.366;2023-02-04T00:16:25;53.80;;;25.20;;
43606;SDS011;29197;44.788;10.366;2023-02-04T00:19:14;50.30;;;25.17;;
43606;SDS011;29197;44.788;10.366;2023-02-04T00:22:03;52.77;;;26.70;;
43606;SDS011;29197;44.788;10.366;2023-02-04T00:24:52;49.33;;;25.73;;
43606;SDS011;29197;44.788;10.366;2023-02-04T00:27:41;59.37;;;27.43;;
43606;SDS011;29197;44.788;10.366;2023-02-04T00:30:29;55.63;;;25.90;;
43606;SDS011;29197;44.788;10.366;2023-02-04T00:33:19;49.13;;;26.07;;
43606;SDS011;29197;44.788;10.366;2023-02-04T00:36:08;56.73;;;26.70;;
43606;SDS011;29197;44.788;10.366;2023-02-04T00:38:56;54.93;;;26.50;;
43606;SDS011;29197;44.788;10.366;2023-02-04T00:41:45;50.73;;;26.40;;
43606;SDS011;29197;44.788;10.366;2023-02-04T00:44:34;52.10;;;25.70;;
43606;SDS011;29197;44.788;10.366;2023-02-04T00:47:23;48.40;;;24.67;;
43606;SDS011;29197;44.788;10.366;2023-02-04T00:50:12;46.73;;;23.97;;
43606;SDS011;29197;44.788;10.366;2023-02-04T00:53:01;54.37;;;25.77;;
43606;SDS011;29197;44.788;10.366;2023-02-04T00:55:50;56.33;;;27.60;;
43606;SDS011;29197;44.788;10.366;2023-02-04T00:58:39;58.13;;;28.27;;
43606;SDS011;29197;44.788;10.366;2023-02-04T01:01:28;46.90;;;25.20;;
43606;SDS011;29197;44.788;10.366;2023-02-04T01:04:17;53.93;;;26.00;;
43606;SDS011;29197;44.788;10.366;2023-02-04T01:07:08;45.47;;;25.17;;
43606;SDS011;29197;44.788;10.366;2023-02-04T01:09:56;58.23;;;25.77;;
43606;SDS011;29197;44.788;10.366;2023-02-04T01:12:45;56.47;;;26.87;;
43606;SDS011;29197;44.788;10.366;2023-02-04T01:15:33;49.53;;;25.53;;
43606;SDS011;29197;44.788;10.366;2023-02-04T01:18:22;48.63;;;25.73;;
43606;SDS011;29197;44.788;10.366;2023-02-04T01:21:11;51.03;;;24.10;;
43606;SDS011;29197;44.788;10.366;2023-02-04T01:24:01;49.50;;;25.40;;
43606;SDS011;29197;44.788;10.366;2023-02-04T01:26:49;50.17;;;25.90;;
43606;SDS011;29197;44.788;10.366;2023-02-04T01:29:37;46.57;;;24.00;;
43606;SDS011;29197;44.788;10.366;2023-02-04T01:32:26;48.20;;;22.83;;
43606;SDS011;29197;44.788;10.366;2023-02-04T01:35:14;49.87;;;24.30;;
43606;SDS011;29197;44.788;10.366;2023-02-04T01:38:03;44.20;;;21.97;;
43606;SDS011;29197;44.788;10.366;2023-02-04T01:40:53;47.37;;;24.43;;
43606;SDS011;29197;44.788;10.366;2023-02-04T01:43:41;45.27;;;23.40;;
43606;SDS011;29197;44.788;10.366;2023-02-04T01:46:30;46.20;;;22.40;;
43606;SDS011;29197;44.788;10.366;2023-02-04T01:49:19;44.47;;;23.40;;
43606;SDS011;29197;44.788;10.366;2023-02-04T01:52:08;40.37;;;21.87;;
43606;SDS011;29197;44.788;10.366;2023-02-04T01:54:58;57.80;;;25.90;;
43606;SDS011;29197;44.788;10.366;2023-02-04T01:57:48;48.77;;;23.60;;
43606;SDS011;29197;44.788;10.366;2023-02-04T02:00:38;47.07;;;22.30;;
43606;SDS011;29197;44.788;10.366;2023-02-04T02:03:27;47.70;;;25.03;;
43606;SDS011;29197;44.788;10.366;2023-02-04T02:06:16;48.40;;;24.00;;
43606;SDS011;29197;44.788;10.366;2023-02-04T02:09:05;49.83;;;23.53;;
43606;SDS011;29197;44.788;10.366;2023-02-04T02:11:53;47.73;;;23.70;;
43606;SDS011;29197;44.788;10.366;2023-02-04T02:14:43;48.57;;;22.40;;
43606;SDS011;29197;44.788;10.366;2023-02-04T02:17:32;49.20;;;24.17;;
43606;SDS011;29197;44.788;10.366;2023-02-04T02:20:21;49.07;;;24.53;;
43606;SDS011;29197;44.788;10.366;2023-02-04T02:23:13;48.40;;;23.93;;
43606;SDS011;29197;44.788;10.366;2023-02-04T02:26:09;48.90;;;24.90;;
43606;SDS011;29197;44.788;10.366;2023-02-04T02:28:57;48.47;;;22.67;;
43606;SDS011;29197;44.788;10.366;2023-02-04T02:31:46;47.90;;;22.27;;
43606;SDS011;29197;44.788;10.366;2023-02-04T02:34:34;44.70;;;23.30;;
43606;SDS011;29197;44.788;10.366;2023-02-04T02:37:24;48.53;;;23.73;;
43606;SDS011;29197;44.788;10.366;2023-02-04T02:40:13;42.00;;;23.10;;
43606;SDS011;29197;44.788;10.366;2023-02-04T02:43:03;48.33;;;25.03;;
43606;SDS011;29197;44.788;10.366;2023-02-04T02:45:53;41.37;;;22.27;;
43606;SDS011;29197;44.788;10.366;2023-02-04T02:48:43;38.23;;;21.60;;
43606;SDS011;29197;44.788;10.366;2023-02-04T02:51:32;47.37;;;24.30;;
43606;SDS011;29197;44.788;10.366;2023-02-04T02:54:21;47.13;;;23.20;;
43606;SDS011;29197;44.788;10.366;2023-02-04T02:57:12;47.13;;;23.27;;
43606;SDS011;29197;44.788;10.366;2023-02-04T03:00:08;44.10;;;22.57;;
43606;SDS011;29197;44.788;10.366;2023-02-04T03:03:02;42.53;;;21.77;;
43606;SDS011;29197;44.788;10.366;2023-02-04T03:05:56;44.87;;;23.13;;
43606;SDS011;29197;44.788;10.366;2023-02-04T03:08:46;40.40;;;22.33;;
43606;SDS011;29197;44.788;10.366;2023-02-04T03:11:36;39.60;;;20.83;;
43606;SDS011;29197;44.788;10.366;2023-02-04T03:14:25;39.67;;;21.07;;
43606;SDS011;29197;44.788;10.366;2023-02-04T03:17:16;40.13;;;20.10;;
43606;SDS011;29197;44.788;10.366;2023-02-04T03:20:04;41.33;;;21.43;;
43606;SDS011;29197;44.788;10.366;2023-02-04T03:22:54;44.07;;;22.20;;
43606;SDS011;29197;44.788;10.366;2023-02-04T03:25:43;41.57;;;21.23;;
43606;SDS011;29197;44.788;10.366;2023-02-04T03:28:32;44.93;;;21.70;;
43606;SDS011;29197;44.788;10.366;2023-02-04T03:31:25;41.27;;;21.90;;
43606;SDS011;29197;44.788;10.366;2023-02-04T03:34:15;37.40;;;20.23;;
43606;SDS011;29197;44.788;10.366;2023-02-04T03:37:04;39.90;;;21.67;;
43606;SDS011;29197;44.788;10.366;2023-02-04T03:39:52;39.93;;;20.57;;
43606;SDS011;29197;44.788;10.366;2023-02-04T03:42:41;33.13;;;19.20;;
43606;SDS011;29197;44.788;10.366;2023-02-04T03:45:29;39.27;;;21.10;;
43606;SDS011;29197;44.788;10.366;2023-02-04T03:48:30;41.60;;;20.47;;
43606;SDS011;29197;44.788;10.366;2023-02-04T03:51:20;39.27;;;19.87;;
43606;SDS011;29197;44.788;10.366;2023-02-04T03:54:09;45.63;;;23.97;;
43606;SDS011;29197;44.788;10.366;2023-02-04T03:56:57;33.93;;;20.00;;
43606;SDS011;29197;44.788;10.366;2023-02-04T03:59:46;40.77;;;20.80;;
43606;SDS011;29197;44.788;10.366;2023-02-04T04:02:34;42.70;;;21.30;;
43606;SDS011;29197;44.788;10.366;2023-02-04T04:05:23;34.20;;;18.30;;
43606;SDS011;29197;44.788;10.366;2023-02-04T04:08:13;47.03;;;21.50;;
43606;SDS011;29197;44.788;10.366;2023-02-04T04:11:01;34.97;;;19.63;;
43606;SDS011;29197;44.788;10.366;2023-02-04T04:13:50;40.00;;;21.27;;
43606;SDS011;29197;44.788;10.366;2023-02-04T04:16:39;41.50;;;21.37;;
43606;SDS011;29197;44.788;10.366;2023-02-04T04:19:27;38.03;;;21.03;;
43606;SDS011;29197;44.788;10.366;2023-02-04T04:22:17;42.30;;;20.40;;
43606;SDS011;29197;44.788;10.366;2023-02-04T04:25:07;44.97;;;22.67;;
43606;SDS011;29197;44.788;10.366;2023-02-04T04:27:56;42.00;;;22.23;;
43606;SDS011;29197;44.788;10.366;2023-02-04T04:30:44;36.63;;;19.60;;
43606;SDS011;29197;44.788;10.366;2023-02-04T04:33:33;41.20;;;21.60;;
43606;SDS011;29197;44.788;10.366;2023-02-04T04:36:21;38.03;;;19.47;;
43606;SDS011;29197;44.788;10.366;2023-02-04T04:39:12;36.53;;;18.43;;
43606;SDS011;29197;44.788;10.366;2023-02-04T04:42:02;34.57;;;18.53;;
43606;SDS011;29197;44.788;10.366;2023-02-04T04:44:51;39.43;;;19.17;;
43606;SDS011;29197;44.788;10.366;2023-02-04T04:47:39;35.43;;;17.80;;
43606;SDS011;29197;44.788;10.366;2023-02-04T04:50:27;37.23;;;18.77;;
43606;SDS011;29197;44.788;10.366;2023-02-04T04:53:16;39.60;;;18.67;;
43606;SDS011;29197;44.788;10.366;2023-02-04T04:56:05;28.23;;;16.27;;
43606;SDS011;29197;44.788;10.366;2023-02-04T04:58:55;37.47;;;18.37;;
43606;SDS011;29197;44.788;10.366;2023-02-04T05:01:43;30.20;;;15.97;;
43606;SDS011;29197;44.788;10.366;2023-02-04T05:04:32;30.93;;;16.63;;
43606;SDS011;29197;44.788;10.366;2023-02-04T05:07:21;30.00;;;16.03;;
43606;SDS011;29197;44.788;10.366;2023-02-04T05:10:09;33.50;;;16.90;;
43606;SDS011;29197;44.788;10.366;2023-02-04T05:12:58;35.20;;;16.83;;
43606;SDS011;29197;44.788;10.366;2023-02-04T05:15:47;38.30;;;18.23;;
43606;SDS011;29197;44.788;10.366;2023-02-04T05:18:36;37.47;;;17.43;;
43606;SDS011;29197;44.788;10.366;2023-02-04T05:21:24;26.23;;;14.23;;
43606;SDS011;29197;44.788;10.366;2023-02-04T05:24:13;33.10;;;16.77;;
43606;SDS011;29197;44.788;10.366;2023-02-04T05:27:02;33.03;;;16.20;;
43606;SDS011;29197;44.788;10.366;2023-02-04T05:29:50;27.20;;;16.00;;
43606;SDS011;29197;44.788;10.366;2023-02-04T05:32:40;29.33;;;15.63;;
43606;SDS011;29197;44.788;10.366;2023-02-04T05:35:28;30.50;;;15.70;;
43606;SDS011;29197;44.788;10.366;2023-02-04T05:38:17;27.37;;;14.47;;
43606;SDS011;29197;44.788;10.366;2023-02-04T05:41:05;27.63;;;14.70;;
43606;SDS011;29197;44.788;10.366;2023-02-04T05:43:54;30.13;;;16.20;;
43606;SDS011;29197;44.788;10.366;2023-02-04T05:46:42;27.03;;;14.67;;
43606;SDS011;29197;44.788;10.366;2023-02-04T05:49:32;28.57;;;15.40;;
43606;SDS011;29197;44.788;10.366;2023-02-04T05:52:20;26.50;;;14.40;;
43606;SDS011;29197;44.788;10.366;2023-02-04T05:55:09;28.67;;;14.23;;
43606;SDS011;29197;44.788;10.366;2023-02-04T05:57:59;25.50;;;14.00;;
43606;SDS011;29197;44.788;10.366;2023-02-04T06:00:47;29.03;;;14.60;;
43606;SDS011;29197;44.788;10.366;2023-02-04T06:03:36;33.70;;;17.23;;
43606;SDS011;29197;44.788;10.366;2023-02-04T06:06:26;35.10;;;16.83;;
43606;SDS011;29197;44.788;10.366;2023-02-04T06:09:14;31.20;;;15.77;;
43606;SDS011;29197;44.788;10.366;2023-02-04T06:12:03;29.60;;;14.53;;
43606;SDS011;29197;44.788;10.366;2023-02-04T06:14:52;30.07;;;17.13;;
43606;SDS011;29197;44.788;10.366;2023-02-04T06:17:41;37.17;;;16.63;;
43606;SDS011;29197;44.788;10.366;2023-02-04T06:20:30;31.27;;;14.80;;
43606;SDS011;29197;44.788;10.366;2023-02-04T06:23:20;30.27;;;16.93;;
43606;SDS011;29197;44.788;10.366;2023-02-04T06:26:08;30.03;;;15.93;;
43606;SDS011;29197;44.788;10.366;2023-02-04T06:28:57;29.93;;;16.07;;
43606;SDS011;29197;44.788;10.366;2023-02-04T06:31:45;24.23;;;14.47;;
43606;SDS011;29197;44.788;10.366;2023-02-04T06:34:35;34.37;;;16.57;;
43606;SDS011;29197;44.788;10.366;2023-02-04T06:37:23;26.17;;;14.17;;
43606;SDS011;29197;44.788;10.366;2023-02-04T06:40:13;27.23;;;14.47;;
43606;SDS011;29197;44.788;10.366;2023-02-04T06:43:02;27.40;;;14.17;;
43606;SDS011;29197;44.788;10.366;2023-02-04T06:45:50;31.30;;;15.67;;
43606;SDS011;29197;44.788;10.366;2023-02-04T06:48:39;29.17;;;14.97;;
43606;SDS011;29197;44.788;10.366;2023-02-04T06:51:27;49.77;;;24.33;;
43606;SDS011;29197;44.788;10.366;2023-02-04T06:54:16;105.57;;;46.77;;
43606;SDS011;29197;44.788;10.366;2023-02-04T06:57:06;50.23;;;26.20;;
43606;SDS011;29197;44.788;10.366;2023-02-04T06:59:54;48.60;;;23.30;;
43606;SDS011;29197;44.788;10.366;2023-02-04T07:02:42;44.33;;;20.93;;
43606;SDS011;29197;44.788;10.366;2023-02-04T07:05:32;32.90;;;17.17;;
43606;SDS011;29197;44.788;10.366;2023-02-04T07:08:20;34.67;;;16.93;;
43606;SDS011;29197;44.788;10.366;2023-02-04T07:11:09;31.10;;;15.93;;
43606;SDS011;29197;44.788;10.366;2023-02-04T07:13:59;27.60;;;14.77;;
43606;SDS011;29197;44.788;10.366;2023-02-04T07:16:47;26.43;;;15.17;;
43606;SDS011;29197;44.788;10.366;2023-02-04T07:19:36;31.60;;;15.90;;
43606;SDS011;29197;44.788;10.366;2023-02-04T07:22:24;29.13;;;15.37;;
43606;SDS011;29197;44.788;10.366;2023-02-04T07:25:13;31.13;;;17.57;;
43606;SDS011;29197;44.788;10.366;2023-02-04T07:28:03;34.70;;;17.37;;
43606;SDS011;29197;44.788;10.366;2023-02-04T07:30:53;33.80;;;16.17;;
43606;SDS011;29197;44.788;10.366;2023-02-04T07:33:42;26.50;;;15.70;;
43606;SDS011;29197;44.788;10.366;2023-02-04T07:36:30;27.70;;;15.60;;
43606;SDS011;29197;44.788;10.366;2023-02-04T07:39:19;31.83;;;17.02;;
43606;SDS011;29197;44.788;10.366;2023-02-04T07:42:08;31.52;;;18.88;;
43606;SDS011;29197;44.788;10.366;2023-02-04T07:44:56;121.73;;;60.90;;
43606;SDS011;29197;44.788;10.366;2023-02-04T07:47:46;40.73;;;22.13;;
43606;SDS011;29197;44.788;10.366;2023-02-04T07:50:35;30.37;;;14.43;;
43606;SDS011;29197;44.788;10.366;2023-02-04T07:53:23;29.60;;;14.20;;
43606;SDS011;29197;44.788;10.366;2023-02-04T07:56:12;27.47;;;14.77;;
43606;SDS011;29197;44.788;10.366;2023-02-04T07:59:00;23.57;;;14.00;;
43606;SDS011;29197;44.788;10.366;2023-02-04T08:01:49;23.63;;;13.53;;
43606;SDS011;29197;44.788;10.366;2023-02-04T08:04:38;24.23;;;14.03;;
43606;SDS011;29197;44.788;10.366;2023-02-04T08:07:27;23.07;;;13.23;;
43606;SDS011;29197;44.788;10.366;2023-02-04T08:10:15;25.83;;;12.80;;
43606;SDS011;29197;44.788;10.366;2023-02-04T08:13:04;21.17;;;11.40;;
43606;SDS011;29197;44.788;10.366;2023-02-04T08:15:53;24.30;;;12.57;;
43606;SDS011;29197;44.788;10.366;2023-02-04T08:18:41;23.50;;;11.20;;
43606;SDS011;29197;44.788;10.366;2023-02-04T08:21:31;17.17;;;11.13;;
43606;SDS011;29197;44.788;10.366;2023-02-04T08:24:20;19.27;;;12.20;;
43606;SDS011;29197;44.788;10.366;2023-02-04T08:27:08;18.50;;;11.77;;
43606;SDS011;29197;44.788;10.366;2023-02-04T08:29:57;20.57;;;11.60;;
43606;SDS011;29197;44.788;10.366;2023-02-04T08:32:45;18.93;;;11.73;;
43606;SDS011;29197;44.788;10.366;2023-02-04T08:35:34;19.13;;;11.30;;
43606;SDS011;29197;44.788;10.366;2023-02-04T08:38:23;19.50;;;10.90;;
43606;SDS011;29197;44.788;10.366;2023-02-04T08:41:12;15.17;;;10.00;;
43606;SDS011;29197;44.788;10.366;2023-02-04T08:44:00;23.43;;;10.90;;
43606;SDS011;29197;44.788;10.366;2023-02-04T08:46:49;18.30;;;10.23;;
43606;SDS011;29197;44.788;10.366;2023-02-04T08:49:38;14.57;;;9.90;;
43606;SDS011;29197;44.788;10.366;2023-02-04T08:52:26;19.77;;;10.90;;
43606;SDS011;29197;44.788;10.366;2023-02-04T08:55:17;16.77;;;9.63;;
43606;SDS011;29197;44.788;10.366;2023-02-04T08:58:05;15.73;;;9.70;;
43606;SDS011;29197;44.788;10.366;2023-02-04T09:00:53;20.63;;;10.33;;
43606;SDS011;29197;44.788;10.366;2023-02-04T09:03:42;18.20;;;10.43;;
43606;SDS011;29197;44.788;10.366;2023-02-04T09:06:30;25.50;;;10.83;;
43606;SDS011;29197;44.788;10.366;2023-02-04T09:09:19;17.43;;;10.07;;
43606;SDS011;29197;44.788;10.366;2023-02-04T09:12:10;25.47;;;10.77;;
43606;SDS011;29197;44.788;10.366;2023-02-04T09:14:59;21.53;;;10.27;;
43606;SDS011;29197;44.788;10.366;2023-02-04T09:17:47;18.67;;;10.30;;
43606;SDS011;29197;44.788;10.366;2023-02-04T09:20:36;23.52;;;10.88;;
43606;SDS011;29197;44.788;10.366;2023-02-04T09:23:24;20.63;;;11.73;;
43606;SDS011;29197;44.788;10.366;2023-02-04T09:26:13;17.10;;;10.38;;
43606;SDS011;29197;44.788;10.366;2023-02-04T09:29:03;18.20;;;9.97;;
43606;SDS011;29197;44.788;10.366;2023-02-04T09:31:51;17.63;;;10.53;;
43606;SDS011;29197;44.788;10.366;2023-02-04T09:34:40;16.65;;;9.40;;
43606;SDS011;29197;44.788;10.366;2023-02-04T09:37:28;19.50;;;9.38;;
43606;SDS011;29197;44.788;10.366;2023-02-04T09:40:17;17.95;;;9.43;;
43606;SDS011;29197;44.788;10.366;2023-02-04T09:43:08;19.45;;;10.38;;
43606;SDS011;29197;44.788;10.366;2023-02-04T09:46:01;22.75;;;8.93;;
43606;SDS011;29197;44.788;10.366;2023-02-04T09:48:50;16.20;;;9.27;;
43606;SDS011;29197;44.788;10.366;2023-02-04T09:51:39;15.43;;;9.70;;
43606;SDS011;29197;44.788;10.366;2023-02-04T09:54:29;15.55;;;8.82;;
43606;SDS011;29197;44.788;10.366;2023-02-04T09:57:18;13.32;;;8.98;;
43606;SDS011;29197;44.788;10.366;2023-02-04T10:00:13;13.70;;;8.57;;
43606;SDS011;29197;44.788;10.366;2023-02-04T10:03:08;20.27;;;11.82;;
43606;SDS011;29197;44.788;10.366;2023-02-04T10:06:01;15.13;;;9.10;;
43606;SDS011;29197;44.788;10.366;2023-02-04T10:08:50;38.00;;;19.73;;
43606;SDS011;29197;44.788;10.366;2023-02-04T10:11:39;34.05;;;16.33;;
43606;SDS011;29197;44.788;10.366;2023-02-04T10:14:29;23.23;;;8.90;;
43606;SDS011;29197;44.788;10.366;2023-02-04T10:17:19;18.00;;;8.77;;
43606;SDS011;29197;44.788;10.366;2023-02-04T10:20:14;23.58;;;14.13;;
43606;SDS011;29197;44.788;10.366;2023-02-04T10:23:04;18.92;;;9.10;;
43606;SDS011;29197;44.788;10.366;2023-02-04T10:25:58;18.65;;;9.50;;
43606;SDS011;29197;44.788;10.366;2023-02-04T10:28:46;15.85;;;8.18;;
43606;SDS011;29197;44.788;10.366;2023-02-04T10:31:37;15.73;;;8.48;;
43606;SDS011;29197;44.788;10.366;2023-02-04T10:34:31;16.25;;;9.93;;
43606;SDS011;29197;44.788;10.366;2023-02-04T10:37:22;22.13;;;10.10;;
43606;SDS011;29197;44.788;10.366;2023-02-04T10:40:27;18.02;;;11.20;;
43606;SDS011;29197;44.788;10.366;2023-02-04T10:43:17;21.23;;;9.35;;
43606;SDS011;29197;44.788;10.366;2023-02-04T10:46:09;17.70;;;10.27;;
43606;SDS011;29197;44.788;10.366;2023-02-04T10:48:57;16.00;;;8.82;;
43606;SDS011;29197;44.788;10.366;2023-02-04T10:51:46;15.13;;;8.88;;
43606;SDS011;29197;44.788;10.366;2023-02-04T10:54:37;15.52;;;9.20;;
43606;SDS011;29197;44.788;10.366;2023-02-04T10:57:26;15.57;;;8.25;;
43606;SDS011;29197;44.788;10.366;2023-02-04T11:00:17;15.38;;;8.10;;
43606;SDS011;29197;44.788;10.366;2023-02-04T11:03:09;9.38;;;7.30;;
43606;SDS011;29197;44.788;10.366;2023-02-04T11:05:59;16.75;;;7.70;;
43606;SDS011;29197;44.788;10.366;2023-02-04T11:08:49;20.45;;;8.35;;
43606;SDS011;29197;44.788;10.366;2023-02-04T11:11:45;20.48;;;8.88;;
43606;SDS011;29197;44.788;10.366;2023-02-04T11:14:34;11.70;;;6.68;;
43606;SDS011;29197;44.788;10.366;2023-02-04T11:17:27;15.02;;;7.93;;
43606;SDS011;29197;44.788;10.366;2023-02-04T11:20:29;14.68;;;7.80;;
43606;SDS011;29197;44.788;10.366;2023-02-04T11:23:30;15.55;;;7.80;;
43606;SDS011;29197;44.788;10.366;2023-02-04T11:26:30;9.23;;;6.25;;
43606;SDS011;29197;44.788;10.366;2023-02-04T11:29:26;11.60;;;6.85;;
43606;SDS011;29197;44.788;10.366;2023-02-04T11:32:26;11.50;;;6.88;;
43606;SDS011;29197;44.788;10.366;2023-02-04T11:35:22;12.13;;;6.65;;
43606;SDS011;29197;44.788;10.366;2023-02-04T11:41:27;12.73;;;7.30;;
43606;SDS011;29197;44.788;10.366;2023-02-04T11:44:17;12.90;;;8.57;;
43606;SDS011;29197;44.788;10.366;2023-02-04T11:47:09;11.77;;;6.75;;
43606;SDS011;29197;44.788;10.366;2023-02-04T11:49:58;8.93;;;6.10;;
43606;SDS011;29197;44.788;10.366;2023-02-04T11:52:52;12.63;;;7.32;;
43606;SDS011;29197;44.788;10.366;2023-02-04T11:55:42;10.10;;;5.95;;
43606;SDS011;29197;44.788;10.366;2023-02-04T11:58:33;11.85;;;6.78;;
43606;SDS011;29197;44.788;10.366;2023-02-04T12:01:29;12.77;;;6.35;;
43606;SDS011;29197;44.788;10.366;2023-02-04T12:04:22;11.98;;;6.10;;
43606;SDS011;29197;44.788;10.366;2023-02-04T12:07:11;11.13;;;6.63;;
43606;SDS011;29197;44.788;10.366;2023-02-04T12:10:11;10.88;;;6.00;;
43606;SDS011;29197;44.788;10.366;2023-02-04T12:13:10;11.95;;;6.53;;
43606;SDS011;29197;44.788;10.366;2023-02-04T12:16:00;13.15;;;6.43;;
43606;SDS011;29197;44.788;10.366;2023-02-04T12:18:51;13.43;;;6.28;;
43606;SDS011;29197;44.788;10.366;2023-02-04T12:21:41;14.15;;;6.68;;
43606;SDS011;29197;44.788;10.366;2023-02-04T12:24:30;13.30;;;6.15;;
43606;SDS011;29197;44.788;10.366;2023-02-04T12:27:18;11.27;;;5.93;;
43606;SDS011;29197;44.788;10.366;2023-02-04T12:30:08;13.15;;;6.95;;
43606;SDS011;29197;44.788;10.366;2023-02-04T12:32:58;14.70;;;6.53;;
43606;SDS011;29197;44.788;10.366;2023-02-04T12:35:46;11.60;;;5.97;;
43606;SDS011;29197;44.788;10.366;2023-02-04T12:38:36;12.43;;;6.22;;
43606;SDS011;29197;44.788;10.366;2023-02-04T12:41:26;12.30;;;7.22;;
43606;SDS011;29197;44.788;10.366;2023-02-04T12:44:14;12.43;;;7.00;;
43606;SDS011;29197;44.788;10.366;2023-02-04T12:47:03;12.10;;;6.53;;
43606;SDS011;29197;44.788;10.366;2023-02-04T12:49:52;13.27;;;7.22;;
43606;SDS011;29197;44.788;10.366;2023-02-04T12:52:40;11.82;;;6.68;;
43606;SDS011;29197;44.788;10.366;2023-02-04T12:55:30;13.80;;;7.53;;
43606;SDS011;29197;44.788;10.366;2023-02-04T12:58:19;16.88;;;8.23;;
43606;SDS011;29197;44.788;10.366;2023-02-04T13:01:08;11.02;;;6.38;;
43606;SDS011;29197;44.788;10.366;2023-02-04T13:03:57;9.52;;;7.05;;
43606;SDS011;29197;44.788;10.366;2023-02-04T13:06:45;13.98;;;10.10;;
43606;SDS011;29197;44.788;10.366;2023-02-04T13:09:34;14.63;;;7.57;;
43606;SDS011;29197;44.788;10.366;2023-02-04T13:12:24;15.75;;;8.35;;
43606;SDS011;29197;44.788;10.366;2023-02-04T13:15:12;13.60;;;8.52;;
43606;SDS011;29197;44.788;10.366;2023-02-04T13:18:01;14.35;;;8.23;;
43606;SDS011;29197;44.788;10.366;2023-02-04T13:20:49;12.60;;;8.15;;
43606;SDS011;29197;44.788;10.366;2023-02-04T13:23:38;15.73;;;8.65;;
43606;SDS011;29197;44.788;10.366;2023-02-04T13:26:26;12.88;;;8.43;;
43606;SDS011;29197;44.788;10.366;2023-02-04T13:29:16;14.25;;;7.88;;
43606;SDS011;29197;44.788;10.366;2023-02-04T13:32:05;15.40;;;11.15;;
43606;SDS011;29197;44.788;10.366;2023-02-04T13:34:55;17.08;;;9.23;;
43606;SDS011;29197;44.788;10.366;2023-02-04T13:37:43;16.08;;;8.95;;
43606;SDS011;29197;44.788;10.366;2023-02-04T13:40:32;12.65;;;8.23;;
43606;SDS011;29197;44.788;10.366;2023-02-04T13:43:20;14.73;;;9.07;;
43606;SDS011;29197;44.788;10.366;2023-02-04T13:46:10;14.43;;;9.27;;
43606;SDS011;29197;44.788;10.366;2023-02-04T13:48:59;16.02;;;8.77;;
43606;SDS011;29197;44.788;10.366;2023-02-04T13:51:47;18.83;;;10.43;;
43606;SDS011;29197;44.788;10.366;2023-02-04T13:54:36;19.90;;;10.20;;
43606;SDS011;29197;44.788;10.366;2023-02-04T13:57:24;16.80;;;8.88;;
43606;SDS011;29197;44.788;10.366;2023-02-04T14:00:13;18.48;;;9.50;;
43606;SDS011;29197;44.788;10.366;2023-02-04T14:03:03;15.48;;;9.57;;
43606;SDS011;29197;44.788;10.366;2023-02-04T14:05:52;11.15;;;8.13;;
43606;SDS011;29197;44.788;10.366;2023-02-04T14:08:41;13.90;;;9.40;;
43606;SDS011;29197;44.788;10.366;2023-02-04T14:11:29;14.35;;;8.23;;
43606;SDS011;29197;44.788;10.366;2023-02-04T14:14:18;13.20;;;9.70;;
43606;SDS011;29197;44.788;10.366;2023-02-04T14:17:06;16.70;;;9.23;;
43606;SDS011;29197;44.788;10.366;2023-02-04T14:19:56;15.68;;;9.73;;
43606;SDS011;29197;44.788;10.366;2023-02-04T14:22:44;16.40;;;8.88;;
43606;SDS011;29197;44.788;10.366;2023-02-04T14:25:33;17.45;;;9.95;;
43606;SDS011;29197;44.788;10.366;2023-02-04T14:28:21;12.90;;;9.27;;
43606;SDS011;29197;44.788;10.366;2023-02-04T14:31:10;12.60;;;7.90;;
43606;SDS011;29197;44.788;10.366;2023-02-04T14:33:59;11.73;;;8.23;;
43606;SDS011;29197;44.788;10.366;2023-02-04T14:36:49;16.38;;;9.65;;
43606;SDS011;29197;44.788;10.366;2023-02-04T14:39:37;15.75;;;10.25;;
43606;SDS011;29197;44.788;10.366;2023-02-04T14:42:25;12.77;;;9.43;;
43606;SDS011;29197;44.788;10.366;2023-02-04T14:45:14;13.43;;;8.52;;
43606;SDS011;29197;44.788;10.366;2023-02-04T14:48:03;11.75;;;7.47;;
43606;SDS011;29197;44.788;10.366;2023-02-04T14:50:52;15.40;;;9.43;;
43606;SDS011;29197;44.788;10.366;2023-02-04T14:53:41;14.40;;;8.35;;
43606;SDS011;29197;44.788;10.366;2023-02-04T14:56:34;14.15;;;8.20;;
43606;SDS011;29197;44.788;10.366;2023-02-04T14:59:22;14.68;;;8.85;;
43606;SDS011;29197;44.788;10.366;2023-02-04T15:02:11;15.23;;;8.65;;
43606;SDS011;29197;44.788;10.366;2023-02-04T15:05:01;15.30;;;9.02;;
43606;SDS011;29197;44.788;10.366;2023-02-04T15:07:50;13.88;;;8.82;;
43606;SDS011;29197;44.788;10.366;2023-02-04T15:10:39;14.75;;;8.65;;
43606;SDS011;29197;44.788;10.366;2023-02-04T15:13:28;14.73;;;9.40;;
43606;SDS011;29197;44.788;10.366;2023-02-04T15:16:17;18.08;;;9.98;;
43606;SDS011;29197;44.788;10.366;2023-02-04T15:19:06;12.80;;;7.63;;
43606;SDS011;29197;44.788;10.366;2023-02-04T15:21:54;14.38;;;9.10;;
43606;SDS011;29197;44.788;10.366;2023-02-04T15:24:43;12.18;;;7.90;;
43606;SDS011;29197;44.788;10.366;2023-02-04T15:27:33;14.05;;;7.95;;
43606;SDS011;29197;44.788;10.366;2023-02-04T15:30:21;14.73;;;8.90;;
43606;SDS011;29197;44.788;10.366;2023-02-04T15:33:10;18.08;;;11.18;;
43606;SDS011;29197;44.788;10.366;2023-02-04T15:35:59;14.63;;;9.65;;
43606;SDS011;29197;44.788;10.366;2023-02-04T15:38:48;12.25;;;8.48;;
43606;SDS011;29197;44.788;10.366;2023-02-04T15:41:36;16.35;;;9.18;;
43606;SDS011;29197;44.788;10.366;2023-02-04T15:44:26;11.73;;;8.23;;
43606;SDS011;29197;44.788;10.366;2023-02-04T15:47:14;12.75;;;8.70;;
43606;SDS011;29197;44.788;10.366;2023-02-04T15:50:05;15.18;;;9.63;;
43606;SDS011;29197;44.788;10.366;2023-02-04T15:52:56;19.45;;;11.27;;
43606;SDS011;29197;44.788;10.366;2023-02-04T15:55:45;13.77;;;8.90;;
43606;SDS011;29197;44.788;10.366;2023-02-04T15:58:33;15.27;;;9.52;;
43606;SDS011;29197;44.788;10.366;2023-02-04T16:01:23;20.85;;;11.30;;
43606;SDS011;29197;44.788;10.366;2023-02-04T16:04:12;14.40;;;9.63;;
43606;SDS011;29197;44.788;10.366;2023-02-04T16:07:00;16.20;;;8.70;;
43606;SDS011;29197;44.788;10.366;2023-02-04T16:09:53;18.88;;;11.40;;
43606;SDS011;29197;44.788;10.366;2023-02-04T16:12:42;17.83;;;10.23;;
43606;SDS011;29197;44.788;10.366;2023-02-04T16:15:30;13.90;;;9.65;;
43606;SDS011;29197;44.788;10.366;2023-02-04T16:18:20;17.50;;;10.15;;
43606;SDS011;29197;44.788;10.366;2023-02-04T16:21:10;21.17;;;11.32;;
43606;SDS011;29197;44.788;10.366;2023-02-04T16:23:58;27.77;;;12.02;;
43606;SDS011;29197;44.788;10.366;2023-02-04T16:26:47;21.05;;;11.13;;